createdAt,value
2019-02-16T00:04:26.859Z,13.67
2019-02-16T00:09:17.770Z,14.10
2019-02-16T00:14:09.441Z,13.70
2019-02-16T00:19:00.334Z,12.60
2019-02-16T00:23:51.232Z,12.40
2019-02-16T00:28:42.891Z,15.43
2019-02-16T00:33:33.812Z,13.93
2019-02-16T00:38:24.720Z,13.23
2019-02-16T00:43:16.395Z,13.97
2019-02-16T00:48:07.297Z,12.70
2019-02-16T00:52:58.255Z,13.03
2019-02-16T00:57:49.159Z,11.57
2019-02-16T01:02:40.076Z,11.33
2019-02-16T01:07:30.992Z,12.10
2019-02-16T01:12:21.914Z,12.43
2019-02-16T01:17:12.822Z,13.90
2019-02-16T01:22:03.714Z,12.73
2019-02-16T01:26:54.605Z,10.90
2019-02-16T01:31:46.246Z,11.23
2019-02-16T01:36:37.887Z,11.20
2019-02-16T01:41:29.536Z,11.17
2019-02-16T01:46:20.428Z,10.60
2019-02-16T01:51:11.389Z,11.30
2019-02-16T01:56:02.284Z,10.43
2019-02-16T02:00:53.927Z,9.70
2019-02-16T02:05:44.826Z,12.10
2019-02-16T02:10:36.462Z,10.50
2019-02-16T02:15:28.097Z,11.82
2019-02-16T02:20:19.733Z,11.93
2019-02-16T02:25:11.365Z,9.90
2019-02-16T02:30:02.995Z,10.07
2019-02-16T02:34:53.886Z,9.33
2019-02-16T02:39:44.793Z,10.00
2019-02-16T02:44:35.679Z,7.83
2019-02-16T02:49:26.584Z,8.80
2019-02-16T02:54:18.222Z,9.13
2019-02-16T02:59:09.858Z,10.20
2019-02-16T03:04:01.493Z,9.77
2019-02-16T03:08:53.125Z,9.27
2019-02-16T03:13:44.757Z,8.20
2019-02-16T03:18:36.399Z,9.07
2019-02-16T03:23:28.026Z,8.20
2019-02-16T03:28:23.442Z,8.13
2019-02-16T03:33:15.226Z,7.63
2019-02-16T03:38:09.921Z,7.57
2019-02-16T03:43:00.846Z,8.00
2019-02-16T03:47:51.747Z,7.17
2019-02-16T03:52:43.387Z,7.57
2019-02-16T03:57:34.283Z,9.48
2019-02-16T04:02:25.922Z,7.67
2019-02-16T04:07:17.626Z,7.23
2019-02-16T04:12:15.607Z,7.03
2019-02-16T04:17:06.506Z,6.90
2019-02-16T04:21:57.398Z,6.93
2019-02-16T04:26:48.289Z,7.43
2019-02-16T04:31:39.178Z,7.27
2019-02-16T04:36:30.074Z,6.73
2019-02-16T04:41:20.965Z,7.50
2019-02-16T04:46:12.593Z,8.63
2019-02-16T04:51:04.235Z,7.95
2019-02-16T04:55:55.129Z,7.83
2019-02-16T05:00:46.025Z,7.70
2019-02-16T05:05:36.934Z,7.00
2019-02-16T05:10:27.826Z,6.97
2019-02-16T05:15:18.717Z,6.80
2019-02-16T05:20:10.353Z,7.53
2019-02-16T05:25:01.988Z,6.37
2019-02-16T05:29:53.643Z,6.30
2019-02-16T05:34:44.534Z,6.43
2019-02-16T05:39:36.174Z,7.10
2019-02-16T05:44:27.818Z,7.10
2019-02-16T05:49:19.449Z,7.00
2019-02-16T05:54:11.076Z,7.47
2019-02-16T05:59:02.713Z,7.13
2019-02-16T06:03:54.356Z,7.43
2019-02-16T06:08:45.996Z,6.10
2019-02-16T06:13:37.629Z,5.43
2019-02-16T06:18:29.253Z,6.63
2019-02-16T06:23:20.151Z,6.27
2019-02-16T06:28:11.035Z,5.40
2019-02-16T06:33:01.925Z,6.47
2019-02-16T06:37:53.566Z,6.60
2019-02-16T06:42:44.469Z,6.30
2019-02-16T06:47:36.093Z,7.90
2019-02-16T06:52:26.981Z,7.43
2019-02-16T06:57:17.902Z,6.20
2019-02-16T07:02:08.793Z,6.50
2019-02-16T07:06:59.693Z,6.20
2019-02-16T07:11:50.583Z,5.60
2019-02-16T07:16:51.477Z,6.40
2019-02-16T07:21:42.370Z,6.30
2019-02-16T07:26:34.005Z,5.93
2019-02-16T07:31:25.635Z,5.53
2019-02-16T07:36:17.270Z,6.90
2019-02-16T07:41:08.901Z,6.70
2019-02-16T07:46:00.541Z,6.20
2019-02-16T07:50:52.208Z,6.20
2019-02-16T07:55:43.105Z,7.13
2019-02-16T08:00:39.746Z,7.40
2019-02-16T08:05:32.289Z,6.57
2019-02-16T08:10:24.203Z,7.10
2019-02-16T08:15:21.130Z,6.50
2019-02-16T08:20:12.022Z,7.50
2019-02-16T08:25:04.477Z,6.90
2019-02-16T08:29:56.113Z,7.90
2019-02-16T08:34:47.851Z,8.60
2019-02-16T08:39:40.345Z,8.35
2019-02-16T08:44:43.029Z,6.83
2019-02-16T08:49:35.737Z,7.90
2019-02-16T08:54:27.630Z,7.30
2019-02-16T08:59:40.589Z,6.63
2019-02-16T09:04:32.381Z,5.97
2019-02-16T09:09:25.014Z,6.63
2019-02-16T09:14:21.980Z,5.73
2019-02-16T09:19:13.849Z,5.63
2019-02-16T09:24:05.481Z,5.03
2019-02-16T09:29:13.897Z,6.12
2019-02-16T09:34:09.549Z,5.85
2019-02-16T09:39:06.627Z,4.80
2019-02-16T09:44:04.264Z,5.13
2019-02-16T09:48:55.155Z,4.47
2019-02-16T09:54:08.186Z,4.47
2019-02-16T09:58:51.753Z,5.10
2019-02-16T10:03:45.817Z,3.63
2019-02-16T10:08:38.489Z,4.20
2019-02-16T10:13:35.625Z,4.23
2019-02-16T10:18:28.374Z,4.13
2019-02-16T10:23:21.109Z,4.50
2019-02-16T10:28:32.553Z,4.10
2019-02-16T10:33:23.439Z,3.80
2019-02-16T10:38:15.877Z,4.30
2019-02-16T10:43:07.678Z,4.10
2019-02-16T10:47:58.576Z,4.20
2019-02-16T10:52:50.517Z,3.90
2019-02-16T10:57:41.430Z,3.80
2019-02-16T11:02:38.569Z,3.80
2019-02-16T11:07:36.331Z,4.07
2019-02-16T11:12:27.233Z,3.70
2019-02-16T11:22:39.315Z,3.60
2019-02-16T11:27:32.868Z,3.43
2019-02-16T11:32:25.682Z,4.03
2019-02-16T11:37:33.192Z,3.33
2019-02-16T11:42:24.094Z,3.20
2019-02-16T11:52:37.366Z,3.20
2019-02-16T11:57:35.131Z,2.53
2019-02-16T12:02:39.247Z,3.10
2019-02-16T12:07:25.561Z,2.10
2019-02-16T12:17:41.496Z,3.00
2019-02-16T12:22:32.385Z,2.23
2019-02-16T12:27:29.457Z,2.30
2019-02-16T12:32:23.314Z,2.13
2019-02-16T12:37:14.214Z,2.33
2019-02-16T12:42:09.018Z,2.47
2019-02-16T12:47:06.005Z,2.30
2019-02-16T12:51:56.907Z,2.40
2019-02-16T12:56:48.767Z,2.10
2019-02-16T13:01:41.520Z,2.37
2019-02-16T13:06:35.381Z,2.50
2019-02-16T13:11:28.849Z,2.50
2019-02-16T13:16:20.490Z,1.87
2019-02-16T13:21:13.081Z,1.90
2019-02-16T13:26:03.993Z,1.93
2019-02-16T13:30:58.796Z,2.00
2019-02-16T13:35:52.651Z,1.90
2019-02-16T13:40:44.381Z,2.00
2019-02-16T13:45:35.273Z,1.80
2019-02-16T13:50:26.186Z,2.10
2019-02-16T13:55:17.974Z,1.70
2019-02-16T14:00:11.418Z,1.83
2019-02-16T14:05:03.169Z,1.80
2019-02-16T14:10:10.131Z,1.60
2019-02-16T14:15:01.906Z,1.90
2019-02-16T14:19:52.798Z,1.90
2019-02-16T14:24:44.597Z,1.80
2019-02-16T14:29:35.489Z,1.60
2019-02-16T14:34:26.381Z,1.80
2019-02-16T14:39:17.289Z,1.80
2019-02-16T14:44:08.267Z,1.70
2019-02-16T14:48:59.917Z,1.30
2019-02-16T14:53:50.813Z,1.70
2019-02-16T14:58:42.446Z,2.00
2019-02-16T15:03:34.665Z,2.00
2019-02-16T15:08:25.578Z,2.08
2019-02-16T15:13:16.478Z,1.83
2019-02-16T15:18:07.373Z,2.10
2019-02-16T15:22:58.290Z,2.00
2019-02-16T15:27:49.188Z,2.55
2019-02-16T15:32:40.826Z,2.40
2019-02-16T15:37:32.485Z,3.00
2019-02-16T15:42:23.384Z,2.67
2019-02-16T15:47:15.037Z,2.10
2019-02-16T15:52:05.933Z,2.70
2019-02-16T15:56:57.565Z,3.50
2019-02-16T16:01:49.256Z,3.55
2019-02-16T16:06:40.129Z,3.30
2019-02-16T16:11:33.733Z,2.43
2019-02-16T16:16:30.873Z,3.03
2019-02-16T16:21:25.445Z,3.50
2019-02-16T16:26:19.820Z,3.03
2019-02-16T16:31:11.573Z,3.60
2019-02-16T16:36:02.415Z,4.13
2019-02-16T16:40:56.172Z,3.90
2019-02-16T16:46:03.942Z,3.83
2019-02-16T16:50:59.705Z,4.40
2019-02-16T16:55:57.759Z,4.73
2019-02-16T17:00:54.805Z,4.45
2019-02-16T17:05:50.386Z,4.60
2019-02-16T17:10:46.238Z,4.53
2019-02-16T17:15:43.993Z,5.90
2019-02-16T17:20:38.849Z,7.73
2019-02-16T17:25:30.560Z,15.17
2019-02-16T17:30:26.405Z,18.27
2019-02-16T17:35:23.375Z,15.97
2019-02-16T17:40:15.930Z,18.30
2019-02-16T17:45:12.897Z,19.40
2019-02-16T17:50:03.778Z,19.00
2019-02-16T17:54:54.689Z,20.47
2019-02-16T17:59:45.593Z,20.70
2019-02-16T18:04:36.489Z,19.00
2019-02-16T18:09:34.204Z,18.43
2019-02-16T18:14:43.029Z,17.10
2019-02-16T18:19:36.862Z,15.97
2019-02-16T18:24:34.042Z,15.20
2019-02-16T18:29:27.617Z,15.45
2019-02-16T18:34:24.664Z,14.90
2019-02-16T18:39:16.405Z,13.50
2019-02-16T18:44:10.181Z,11.23
2019-02-16T18:49:01.090Z,11.27
2019-02-16T18:53:52.010Z,11.67
2019-02-16T18:58:45.797Z,11.23
2019-02-16T19:03:37.449Z,11.90
2019-02-16T19:08:28.355Z,12.10
2019-02-16T19:13:23.283Z,11.33
2019-02-16T19:18:18.131Z,10.43
2019-02-16T19:23:14.875Z,9.47
2019-02-16T19:28:06.518Z,10.30
2019-02-16T19:33:02.333Z,9.90
2019-02-16T19:38:00.068Z,9.53
2019-02-16T19:42:50.965Z,12.20
2019-02-16T19:47:53.601Z,13.52
2019-02-16T19:52:50.676Z,14.90
2019-02-16T19:57:41.561Z,18.87
2019-02-16T20:02:33.326Z,19.97
2019-02-16T20:07:24.234Z,21.33
2019-02-16T20:12:18.041Z,23.60
2019-02-16T20:17:11.610Z,24.13
2019-02-16T20:22:06.185Z,26.10
2019-02-16T20:26:57.941Z,27.87
2019-02-16T20:31:50.725Z,25.40
2019-02-16T20:36:41.622Z,24.53
2019-02-16T20:41:33.357Z,23.63
2019-02-16T20:46:26.321Z,24.10
2019-02-16T20:51:17.213Z,23.73
2019-02-16T20:56:08.121Z,22.83
2019-02-16T21:01:13.997Z,25.45
2019-02-16T21:06:04.889Z,26.57
2019-02-16T21:10:59.355Z,25.20
2019-02-16T21:15:56.432Z,23.70
2019-02-16T21:20:49.133Z,22.80
2019-02-16T21:25:59.869Z,21.83
2019-02-16T21:30:50.760Z,21.10
2019-02-16T21:35:48.009Z,18.83
2019-02-16T21:40:38.658Z,23.27
2019-02-16T21:45:29.557Z,22.30
2019-02-16T21:50:20.475Z,20.13
2019-02-16T21:55:11.369Z,19.27
2019-02-16T22:00:02.260Z,18.67
2019-02-16T22:04:53.898Z,19.30
2019-02-16T22:09:45.533Z,17.30
2019-02-16T22:14:37.158Z,17.33
2019-02-16T22:19:28.058Z,17.50
2019-02-16T22:24:18.958Z,18.10
2019-02-16T22:29:09.860Z,18.20
2019-02-16T22:34:00.760Z,15.63
2019-02-16T22:38:51.663Z,16.17
2019-02-16T22:43:43.321Z,15.70
2019-02-16T22:48:34.213Z,14.97
2019-02-16T22:53:25.857Z,16.03
2019-02-16T22:58:17.489Z,14.27
2019-02-16T23:03:09.118Z,15.03
2019-02-16T23:08:00.823Z,17.42
2019-02-16T23:12:51.717Z,15.87
2019-02-16T23:17:42.618Z,14.40
2019-02-16T23:22:33.505Z,15.20
2019-02-16T23:27:25.145Z,14.20
2019-02-16T23:32:16.790Z,14.93
2019-02-16T23:37:08.440Z,12.90
2019-02-16T23:41:59.337Z,14.80
2019-02-16T23:46:58.110Z,14.23
2019-02-16T23:51:49.017Z,14.40
2019-02-16T23:56:40.165Z,14.00
